sensor_id;sensor_type;location;lat;lon;timestamp;temperature;humidity
67586;SHT31;55785;47.946;20.540;2022-07-05T00:01:11;24.80;41.76
67586;SHT31;55785;47.946;20.540;2022-07-05T00:03:37;24.72;42.88
67586;SHT31;55785;47.946;20.540;2022-07-05T00:06:02;24.37;43.17
67586;SHT31;55785;47.946;20.540;2022-07-05T00:08:28;24.29;43.15
67586;SHT31;55785;47.946;20.540;2022-07-05T00:10:53;24.45;41.11
67586;SHT31;55785;47.946;20.540;2022-07-05T00:13:19;24.49;41.34
67586;SHT31;55785;47.946;20.540;2022-07-05T00:15:44;24.69;39.05
67586;SHT31;55785;47.946;20.540;2022-07-05T00:18:10;24.80;38.72
67586;SHT31;55785;47.946;20.540;2022-07-05T00:20:35;24.97;38.65
67586;SHT31;55785;47.946;20.540;2022-07-05T00:23:00;25.11;37.14
67586;SHT31;55785;47.946;20.540;2022-07-05T00:25:26;25.20;37.52
67586;SHT31;55785;47.946;20.540;2022-07-05T00:27:51;25.35;37.01
67586;SHT31;55785;47.946;20.540;2022-07-05T00:30:16;25.45;36.94
67586;SHT31;55785;47.946;20.540;2022-07-05T00:32:42;25.48;37.03
67586;SHT31;55785;47.946;20.540;2022-07-05T00:35:07;25.69;36.59
67586;SHT31;55785;47.946;20.540;2022-07-05T00:37:33;25.72;36.50
67586;SHT31;55785;47.946;20.540;2022-07-05T00:39:59;25.80;36.11
67586;SHT31;55785;47.946;20.540;2022-07-05T00:42:24;25.79;36.15
67586;SHT31;55785;47.946;20.540;2022-07-05T00:44:50;25.83;36.14
67586;SHT31;55785;47.946;20.540;2022-07-05T00:47:16;25.85;35.94
67586;SHT31;55785;47.946;20.540;2022-07-05T00:49:42;25.85;36.09
67586;SHT31;55785;47.946;20.540;2022-07-05T00:52:08;25.75;38.64
67586;SHT31;55785;47.946;20.540;2022-07-05T00:54:36;25.58;38.46
67586;SHT31;55785;47.946;20.540;2022-07-05T00:57:02;25.25;41.22
67586;SHT31;55785;47.946;20.540;2022-07-05T00:59:28;24.94;41.95
67586;SHT31;55785;47.946;20.540;2022-07-05T01:01:54;24.69;43.12
67586;SHT31;55785;47.946;20.540;2022-07-05T01:04:20;24.53;44.02
67586;SHT31;55785;47.946;20.540;2022-07-05T01:06:47;24.28;44.17
67586;SHT31;55785;47.946;20.540;2022-07-05T01:09:15;24.06;45.23
67586;SHT31;55785;47.946;20.540;2022-07-05T01:11:45;23.85;45.98
67586;SHT31;55785;47.946;20.540;2022-07-05T01:14:17;23.77;46.21
67586;SHT31;55785;47.946;20.540;2022-07-05T01:16:42;23.63;46.06
67586;SHT31;55785;47.946;20.540;2022-07-05T01:19:10;23.53;46.18
67586;SHT31;55785;47.946;20.540;2022-07-05T01:21:43;23.42;47.03
67586;SHT31;55785;47.946;20.540;2022-07-05T01:24:10;23.36;47.56
67586;SHT31;55785;47.946;20.540;2022-07-05T01:26:37;23.18;47.17
67586;SHT31;55785;47.946;20.540;2022-07-05T01:29:03;22.94;48.60
67586;SHT31;55785;47.946;20.540;2022-07-05T01:31:28;22.88;48.66
67586;SHT31;55785;47.946;20.540;2022-07-05T01:33:54;22.69;48.01
67586;SHT31;55785;47.946;20.540;2022-07-05T01:36:19;22.54;48.72
67586;SHT31;55785;47.946;20.540;2022-07-05T01:38:45;22.60;47.43
67586;SHT31;55785;47.946;20.540;2022-07-05T01:41:11;22.65;47.08
67586;SHT31;55785;47.946;20.540;2022-07-05T01:43:36;22.62;48.21
67586;SHT31;55785;47.946;20.540;2022-07-05T01:46:04;22.65;46.88
67586;SHT31;55785;47.946;20.540;2022-07-05T01:48:32;22.71;47.90
67586;SHT31;55785;47.946;20.540;2022-07-05T01:51:09;22.69;47.28
67586;SHT31;55785;47.946;20.540;2022-07-05T01:53:36;22.67;47.18
67586;SHT31;55785;47.946;20.540;2022-07-05T01:56:04;22.67;46.86
67586;SHT31;55785;47.946;20.540;2022-07-05T01:58:30;22.61;48.57
67586;SHT31;55785;47.946;20.540;2022-07-05T02:00:57;22.51;49.11
67586;SHT31;55785;47.946;20.540;2022-07-05T02:03:22;22.48;48.51
67586;SHT31;55785;47.946;20.540;2022-07-05T02:05:48;22.39;48.62
67586;SHT31;55785;47.946;20.540;2022-07-05T02:08:15;22.33;48.79
67586;SHT31;55785;47.946;20.540;2022-07-05T02:10:42;22.34;48.53
67586;SHT31;55785;47.946;20.540;2022-07-05T02:13:08;22.29;48.83
67586;SHT31;55785;47.946;20.540;2022-07-05T02:15:36;22.18;48.68
67586;SHT31;55785;47.946;20.540;2022-07-05T02:18:03;22.16;48.87
67586;SHT31;55785;47.946;20.540;2022-07-05T02:20:30;22.14;49.00
67586;SHT31;55785;47.946;20.540;2022-07-05T02:22:56;22.00;49.33
67586;SHT31;55785;47.946;20.540;2022-07-05T02:25:22;21.96;49.77
67586;SHT31;55785;47.946;20.540;2022-07-05T02:27:48;21.94;49.06
67586;SHT31;55785;47.946;20.540;2022-07-05T02:30:14;21.96;49.85
67586;SHT31;55785;47.946;20.540;2022-07-05T02:32:40;21.94;49.56
67586;SHT31;55785;47.946;20.540;2022-07-05T02:35:07;21.88;50.47
67586;SHT31;55785;47.946;20.540;2022-07-05T02:37:33;21.89;50.33
67586;SHT31;55785;47.946;20.540;2022-07-05T02:39:58;21.89;50.36
67586;SHT31;55785;47.946;20.540;2022-07-05T02:42:24;21.89;50.30
67586;SHT31;55785;47.946;20.540;2022-07-05T02:44:49;21.86;51.03
67586;SHT31;55785;47.946;20.540;2022-07-05T02:47:14;21.79;50.91
67586;SHT31;55785;47.946;20.540;2022-07-05T02:49:40;21.73;52.25
67586;SHT31;55785;47.946;20.540;2022-07-05T02:52:05;21.71;50.96
67586;SHT31;55785;47.946;20.540;2022-07-05T02:54:31;21.63;51.06
67586;SHT31;55785;47.946;20.540;2022-07-05T02:56:56;21.58;52.12
67586;SHT31;55785;47.946;20.540;2022-07-05T02:59:22;21.54;52.40
67586;SHT31;55785;47.946;20.540;2022-07-05T03:01:47;21.46;52.22
67586;SHT31;55785;47.946;20.540;2022-07-05T03:04:12;21.38;52.19
67586;SHT31;55785;47.946;20.540;2022-07-05T03:06:38;21.32;51.86
67586;SHT31;55785;47.946;20.540;2022-07-05T03:09:04;21.32;51.51
67586;SHT31;55785;47.946;20.540;2022-07-05T03:11:30;21.35;51.73
67586;SHT31;55785;47.946;20.540;2022-07-05T03:13:55;21.41;51.22
67586;SHT31;55785;47.946;20.540;2022-07-05T03:16:21;21.42;51.76
67586;SHT31;55785;47.946;20.540;2022-07-05T03:18:46;21.46;51.61
67586;SHT31;55785;47.946;20.540;2022-07-05T03:21:11;21.49;51.57
67586;SHT31;55785;47.946;20.540;2022-07-05T03:23:37;21.56;51.55
67586;SHT31;55785;47.946;20.540;2022-07-05T03:26:02;21.61;53.59
67586;SHT31;55785;47.946;20.540;2022-07-05T03:28:27;21.51;52.33
67586;SHT31;55785;47.946;20.540;2022-07-05T03:30:52;21.46;52.28
67586;SHT31;55785;47.946;20.540;2022-07-05T03:33:18;21.46;52.20
67586;SHT31;55785;47.946;20.540;2022-07-05T03:35:43;21.46;52.53
67586;SHT31;55785;47.946;20.540;2022-07-05T03:38:08;21.49;52.49
67586;SHT31;55785;47.946;20.540;2022-07-05T03:40:34;21.52;52.97
67586;SHT31;55785;47.946;20.540;2022-07-05T03:42:59;21.61;52.60
67586;SHT31;55785;47.946;20.540;2022-07-05T03:45:25;21.67;53.01
67586;SHT31;55785;47.946;20.540;2022-07-05T03:47:50;21.78;53.16
67586;SHT31;55785;47.946;20.540;2022-07-05T03:50:15;21.89;54.46
67586;SHT31;55785;47.946;20.540;2022-07-05T03:52:41;21.99;53.81
67586;SHT31;55785;47.946;20.540;2022-07-05T03:55:06;22.06;53.87
67586;SHT31;55785;47.946;20.540;2022-07-05T03:57:32;22.21;53.19
67586;SHT31;55785;47.946;20.540;2022-07-05T03:59:57;22.37;53.92
67586;SHT31;55785;47.946;20.540;2022-07-05T04:02:22;22.57;53.13
67586;SHT31;55785;47.946;20.540;2022-07-05T04:04:48;22.67;52.45
67586;SHT31;55785;47.946;20.540;2022-07-05T04:07:13;22.81;52.80
67586;SHT31;55785;47.946;20.540;2022-07-05T04:09:38;22.89;51.96
67586;SHT31;55785;47.946;20.540;2022-07-05T04:12:04;22.95;52.34
67586;SHT31;55785;47.946;20.540;2022-07-05T04:14:30;22.99;51.12
67586;SHT31;55785;47.946;20.540;2022-07-05T04:16:55;23.08;52.91
67586;SHT31;55785;47.946;20.540;2022-07-05T04:19:21;23.20;49.44
67586;SHT31;55785;47.946;20.540;2022-07-05T04:21:46;23.50;46.72
67586;SHT31;55785;47.946;20.540;2022-07-05T04:24:12;23.74;45.75
67586;SHT31;55785;47.946;20.540;2022-07-05T04:26:37;23.85;47.20
67586;SHT31;55785;47.946;20.540;2022-07-05T04:29:02;24.04;45.40
67586;SHT31;55785;47.946;20.540;2022-07-05T04:31:28;24.11;46.07
67586;SHT31;55785;47.946;20.540;2022-07-05T04:33:53;24.15;46.06
67586;SHT31;55785;47.946;20.540;2022-07-05T04:36:18;24.14;46.88
67586;SHT31;55785;47.946;20.540;2022-07-05T04:38:44;24.16;47.70
67586;SHT31;55785;47.946;20.540;2022-07-05T04:41:09;24.18;48.14
67586;SHT31;55785;47.946;20.540;2022-07-05T04:43:34;24.19;46.17
67586;SHT31;55785;47.946;20.540;2022-07-05T04:46:00;24.30;45.26
67586;SHT31;55785;47.946;20.540;2022-07-05T04:48:25;24.37;48.59
67586;SHT31;55785;47.946;20.540;2022-07-05T04:50:51;24.35;48.80
67586;SHT31;55785;47.946;20.540;2022-07-05T04:53:16;24.46;45.61
67586;SHT31;55785;47.946;20.540;2022-07-05T04:55:41;24.56;45.32
67586;SHT31;55785;47.946;20.540;2022-07-05T04:58:07;24.66;45.16
67586;SHT31;55785;47.946;20.540;2022-07-05T05:00:32;24.76;44.71
67586;SHT31;55785;47.946;20.540;2022-07-05T05:02:57;24.81;44.44
67586;SHT31;55785;47.946;20.540;2022-07-05T05:05:23;24.91;44.42
67586;SHT31;55785;47.946;20.540;2022-07-05T05:07:48;24.95;44.44
67586;SHT31;55785;47.946;20.540;2022-07-05T05:10:13;25.06;44.64
67586;SHT31;55785;47.946;20.540;2022-07-05T05:12:39;25.10;44.70
67586;SHT31;55785;47.946;20.540;2022-07-05T05:15:05;25.17;45.06
67586;SHT31;55785;47.946;20.540;2022-07-05T05:17:41;25.24;44.90
67586;SHT31;55785;47.946;20.540;2022-07-05T05:20:11;25.22;46.67
67586;SHT31;55785;47.946;20.540;2022-07-05T05:22:37;25.31;45.06
67586;SHT31;55785;47.946;20.540;2022-07-05T05:25:03;25.39;44.85
67586;SHT31;55785;47.946;20.540;2022-07-05T05:27:28;25.46;45.02
67586;SHT31;55785;47.946;20.540;2022-07-05T05:29:53;25.55;44.92
67586;SHT31;55785;47.946;20.540;2022-07-05T05:32:19;25.65;45.05
67586;SHT31;55785;47.946;20.540;2022-07-05T05:34:44;25.75;44.45
67586;SHT31;55785;47.946;20.540;2022-07-05T05:37:09;25.86;44.16
67586;SHT31;55785;47.946;20.540;2022-07-05T05:39:35;25.89;44.25
67586;SHT31;55785;47.946;20.540;2022-07-05T05:42:00;25.80;44.31
67586;SHT31;55785;47.946;20.540;2022-07-05T05:44:25;25.83;44.46
67586;SHT31;55785;47.946;20.540;2022-07-05T05:46:50;25.82;45.07
67586;SHT31;55785;47.946;20.540;2022-07-05T05:49:16;25.82;44.98
67586;SHT31;55785;47.946;20.540;2022-07-05T05:51:41;25.83;44.83
67586;SHT31;55785;47.946;20.540;2022-07-05T05:54:06;25.90;44.62
67586;SHT31;55785;47.946;20.540;2022-07-05T05:56:32;25.80;44.26
67586;SHT31;55785;47.946;20.540;2022-07-05T05:58:57;25.76;44.57
67586;SHT31;55785;47.946;20.540;2022-07-05T06:01:22;25.78;44.44
67586;SHT31;55785;47.946;20.540;2022-07-05T06:03:48;25.79;44.39
67586;SHT31;55785;47.946;20.540;2022-07-05T06:06:13;25.85;44.07
67586;SHT31;55785;47.946;20.540;2022-07-05T06:08:38;25.83;44.67
67586;SHT31;55785;47.946;20.540;2022-07-05T06:11:04;25.82;44.72
67586;SHT31;55785;47.946;20.540;2022-07-05T06:13:29;25.90;45.75
67586;SHT31;55785;47.946;20.540;2022-07-05T06:15:55;25.85;45.12
67586;SHT31;55785;47.946;20.540;2022-07-05T06:18:20;25.76;45.06
67586;SHT31;55785;47.946;20.540;2022-07-05T06:20:45;25.75;44.74
67586;SHT31;55785;47.946;20.540;2022-07-05T06:23:11;25.75;48.29
67586;SHT31;55785;47.946;20.540;2022-07-05T06:25:36;25.69;45.01
67586;SHT31;55785;47.946;20.540;2022-07-05T06:28:04;25.68;44.85
67586;SHT31;55785;47.946;20.540;2022-07-05T06:30:31;25.70;44.42
67586;SHT31;55785;47.946;20.540;2022-07-05T06:32:57;25.73;45.94
67586;SHT31;55785;47.946;20.540;2022-07-05T06:35:22;25.68;45.21
67586;SHT31;55785;47.946;20.540;2022-07-05T06:37:50;25.76;45.14
67586;SHT31;55785;47.946;20.540;2022-07-05T06:40:22;25.75;45.38
67586;SHT31;55785;47.946;20.540;2022-07-05T06:42:52;25.70;46.42
67586;SHT31;55785;47.946;20.540;2022-07-05T06:45:17;25.53;47.02
67586;SHT31;55785;47.946;20.540;2022-07-05T06:47:43;25.53;47.80
67586;SHT31;55785;47.946;20.540;2022-07-05T06:50:09;25.61;46.93
67586;SHT31;55785;47.946;20.540;2022-07-05T06:52:34;25.63;47.11
67586;SHT31;55785;47.946;20.540;2022-07-05T06:55:00;25.63;49.29
67586;SHT31;55785;47.946;20.540;2022-07-05T06:57:26;25.66;50.95
67586;SHT31;55785;47.946;20.540;2022-07-05T06:59:52;25.70;50.05
67586;SHT31;55785;47.946;20.540;2022-07-05T07:02:18;25.72;50.26
67586;SHT31;55785;47.946;20.540;2022-07-05T07:04:43;25.69;47.51
67586;SHT31;55785;47.946;20.540;2022-07-05T07:07:08;25.76;51.83
67586;SHT31;55785;47.946;20.540;2022-07-05T07:09:34;25.76;48.24
67586;SHT31;55785;47.946;20.540;2022-07-05T07:11:59;25.80;45.64
67586;SHT31;55785;47.946;20.540;2022-07-05T07:14:24;25.93;45.28
67586;SHT31;55785;47.946;20.540;2022-07-05T07:16:49;26.01;48.21
67586;SHT31;55785;47.946;20.540;2022-07-05T07:19:15;26.18;45.22
67586;SHT31;55785;47.946;20.540;2022-07-05T07:21:41;26.27;44.48
67586;SHT31;55785;47.946;20.540;2022-07-05T07:24:07;26.45;43.91
67586;SHT31;55785;47.946;20.540;2022-07-05T07:26:33;26.59;43.56
67586;SHT31;55785;47.946;20.540;2022-07-05T07:28:58;26.81;43.43
67586;SHT31;55785;47.946;20.540;2022-07-05T07:31:26;26.99;42.79
67586;SHT31;55785;47.946;20.540;2022-07-05T07:33:51;27.49;42.61
67586;SHT31;55785;47.946;20.540;2022-07-05T07:36:17;27.87;42.08
67586;SHT31;55785;47.946;20.540;2022-07-05T07:38:42;28.08;39.92
67586;SHT31;55785;47.946;20.540;2022-07-05T07:41:07;28.42;39.78
67586;SHT31;55785;47.946;20.540;2022-07-05T07:43:32;28.50;37.62
67586;SHT31;55785;47.946;20.540;2022-07-05T07:45:58;28.64;38.44
67586;SHT31;55785;47.946;20.540;2022-07-05T07:48:23;28.77;39.36
67586;SHT31;55785;47.946;20.540;2022-07-05T07:50:48;28.80;37.22
67586;SHT31;55785;47.946;20.540;2022-07-05T07:53:14;28.87;38.93
67586;SHT31;55785;47.946;20.540;2022-07-05T07:55:39;28.96;37.40
67586;SHT31;55785;47.946;20.540;2022-07-05T07:58:04;28.98;37.55
67586;SHT31;55785;47.946;20.540;2022-07-05T08:00:30;29.03;38.17
67586;SHT31;55785;47.946;20.540;2022-07-05T08:02:55;29.10;38.22
67586;SHT31;55785;47.946;20.540;2022-07-05T08:05:20;29.12;38.85
67586;SHT31;55785;47.946;20.540;2022-07-05T08:07:45;29.21;39.14
67586;SHT31;55785;47.946;20.540;2022-07-05T08:10:11;29.24;38.98
67586;SHT31;55785;47.946;20.540;2022-07-05T08:12:36;29.31;37.82
67586;SHT31;55785;47.946;20.540;2022-07-05T08:15:02;29.32;36.79
67586;SHT31;55785;47.946;20.540;2022-07-05T08:17:27;29.39;37.33
67586;SHT31;55785;47.946;20.540;2022-07-05T08:19:52;29.49;38.03
67586;SHT31;55785;47.946;20.540;2022-07-05T08:22:18;29.56;37.82
67586;SHT31;55785;47.946;20.540;2022-07-05T08:24:43;29.70;37.46
67586;SHT31;55785;47.946;20.540;2022-07-05T08:27:09;29.77;35.82
67586;SHT31;55785;47.946;20.540;2022-07-05T08:29:34;29.84;38.56
67586;SHT31;55785;47.946;20.540;2022-07-05T08:32:00;29.97;37.60
67586;SHT31;55785;47.946;20.540;2022-07-05T08:34:25;30.02;37.26
67586;SHT31;55785;47.946;20.540;2022-07-05T08:36:50;29.84;37.46
67586;SHT31;55785;47.946;20.540;2022-07-05T08:39:16;29.94;37.21
67586;SHT31;55785;47.946;20.540;2022-07-05T08:41:43;29.99;38.70
67586;SHT31;55785;47.946;20.540;2022-07-05T08:44:09;29.99;37.26
67586;SHT31;55785;47.946;20.540;2022-07-05T08:46:38;29.93;36.58
67586;SHT31;55785;47.946;20.540;2022-07-05T08:49:04;30.02;36.92
67586;SHT31;55785;47.946;20.540;2022-07-05T08:51:33;30.02;38.87
67586;SHT31;55785;47.946;20.540;2022-07-05T08:54:00;30.02;36.33
67586;SHT31;55785;47.946;20.540;2022-07-05T08:56:25;29.86;35.51
67586;SHT31;55785;47.946;20.540;2022-07-05T08:58:50;29.87;35.94
67586;SHT31;55785;47.946;20.540;2022-07-05T09:01:16;30.10;36.25
67586;SHT31;55785;47.946;20.540;2022-07-05T09:03:51;30.12;36.22
67586;SHT31;55785;47.946;20.540;2022-07-05T09:06:19;30.10;36.45
67586;SHT31;55785;47.946;20.540;2022-07-05T09:08:45;30.24;36.25
67586;SHT31;55785;47.946;20.540;2022-07-05T09:11:14;30.34;35.81
67586;SHT31;55785;47.946;20.540;2022-07-05T09:13:41;30.45;35.73
67586;SHT31;55785;47.946;20.540;2022-07-05T09:16:07;30.62;35.85
67586;SHT31;55785;47.946;20.540;2022-07-05T09:19:05;30.65;34.97
67586;SHT31;55785;47.946;20.540;2022-07-05T09:21:31;30.79;36.27
67586;SHT31;55785;47.946;20.540;2022-07-05T09:26:45;30.88;36.54
67586;SHT31;55785;47.946;20.540;2022-07-05T09:29:12;30.83;36.98
67586;SHT31;55785;47.946;20.540;2022-07-05T09:31:43;30.76;35.08
67586;SHT31;55785;47.946;20.540;2022-07-05T09:34:10;30.75;37.60
67586;SHT31;55785;47.946;20.540;2022-07-05T09:39:12;30.67;37.03
67586;SHT31;55785;47.946;20.540;2022-07-05T09:41:37;30.85;37.05
67586;SHT31;55785;47.946;20.540;2022-07-05T09:44:02;30.98;36.53
67586;SHT31;55785;47.946;20.540;2022-07-05T09:46:32;31.15;36.56
67586;SHT31;55785;47.946;20.540;2022-07-05T09:48:57;31.48;35.25
67586;SHT31;55785;47.946;20.540;2022-07-05T09:51:23;31.60;34.50
67586;SHT31;55785;47.946;20.540;2022-07-05T09:53:52;31.54;34.32
67586;SHT31;55785;47.946;20.540;2022-07-05T09:56:17;31.51;35.36
67586;SHT31;55785;47.946;20.540;2022-07-05T09:58:44;31.73;35.14
67586;SHT31;55785;47.946;20.540;2022-07-05T10:03:54;31.82;34.73
67586;SHT31;55785;47.946;20.540;2022-07-05T10:06:22;31.73;33.94
67586;SHT31;55785;47.946;20.540;2022-07-05T10:08:48;31.66;34.60
67586;SHT31;55785;47.946;20.540;2022-07-05T10:11:14;31.87;35.54
67586;SHT31;55785;47.946;20.540;2022-07-05T10:13:41;32.16;34.95
67586;SHT31;55785;47.946;20.540;2022-07-05T10:16:07;32.36;34.56
67586;SHT31;55785;47.946;20.540;2022-07-05T10:18:33;32.59;34.60
67586;SHT31;55785;47.946;20.540;2022-07-05T10:21:01;32.94;34.07
67586;SHT31;55785;47.946;20.540;2022-07-05T10:23:27;33.20;34.23
67586;SHT31;55785;47.946;20.540;2022-07-05T10:25:53;33.28;34.55
67586;SHT31;55785;47.946;20.540;2022-07-05T10:28:20;33.32;33.03
67586;SHT31;55785;47.946;20.540;2022-07-05T10:30:48;34.03;32.11
67586;SHT31;55785;47.946;20.540;2022-07-05T10:33:19;34.41;30.99
67586;SHT31;55785;47.946;20.540;2022-07-05T10:35:45;34.02;31.78
67586;SHT31;55785;47.946;20.540;2022-07-05T10:38:11;33.48;32.59
67586;SHT31;55785;47.946;20.540;2022-07-05T10:40:38;33.69;32.90
67586;SHT31;55785;47.946;20.540;2022-07-05T10:43:06;33.66;32.64
67586;SHT31;55785;47.946;20.540;2022-07-05T10:45:35;33.59;32.35
67586;SHT31;55785;47.946;20.540;2022-07-05T11:06:07;34.94;30.61
67586;SHT31;55785;47.946;20.540;2022-07-05T11:11:27;34.26;30.34
67586;SHT31;55785;47.946;20.540;2022-07-05T11:13:53;34.26;30.68
67586;SHT31;55785;47.946;20.540;2022-07-05T11:16:45;34.26;30.88
67586;SHT31;55785;47.946;20.540;2022-07-05T11:19:13;34.30;31.00
67586;SHT31;55785;47.946;20.540;2022-07-05T11:21:40;34.27;31.65
67586;SHT31;55785;47.946;20.540;2022-07-05T11:24:25;34.43;32.04
67586;SHT31;55785;47.946;20.540;2022-07-05T11:26:53;34.63;31.31
67586;SHT31;55785;47.946;20.540;2022-07-05T11:29:40;34.60;31.05
67586;SHT31;55785;47.946;20.540;2022-07-05T11:32:07;34.85;29.88
67586;SHT31;55785;47.946;20.540;2022-07-05T11:34:33;35.16;30.94
67586;SHT31;55785;47.946;20.540;2022-07-05T11:39:40;35.63;29.36
67586;SHT31;55785;47.946;20.540;2022-07-05T11:42:08;35.64;30.22
67586;SHT31;55785;47.946;20.540;2022-07-05T11:44:34;35.66;29.20
67586;SHT31;55785;47.946;20.540;2022-07-05T11:47:00;35.54;29.47
67586;SHT31;55785;47.946;20.540;2022-07-05T11:49:26;35.03;28.97
67586;SHT31;55785;47.946;20.540;2022-07-05T11:52:01;34.67;30.11
67586;SHT31;55785;47.946;20.540;2022-07-05T11:54:29;34.36;30.72
67586;SHT31;55785;47.946;20.540;2022-07-05T11:56:55;34.21;30.65
67586;SHT31;55785;47.946;20.540;2022-07-05T11:59:21;34.24;31.73
67586;SHT31;55785;47.946;20.540;2022-07-05T12:01:47;34.50;30.98
67586;SHT31;55785;47.946;20.540;2022-07-05T12:04:21;34.88;31.23
67586;SHT31;55785;47.946;20.540;2022-07-05T12:06:46;35.13;29.65
67586;SHT31;55785;47.946;20.540;2022-07-05T12:09:11;35.11;31.10
67586;SHT31;55785;47.946;20.540;2022-07-05T12:11:37;35.02;29.80
67586;SHT31;55785;47.946;20.540;2022-07-05T12:14:03;34.72;29.49
67586;SHT31;55785;47.946;20.540;2022-07-05T12:16:28;35.03;30.02
67586;SHT31;55785;47.946;20.540;2022-07-05T12:18:55;35.03;30.09
67586;SHT31;55785;47.946;20.540;2022-07-05T12:21:22;35.09;30.34
67586;SHT31;55785;47.946;20.540;2022-07-05T12:23:49;35.28;29.63
67586;SHT31;55785;47.946;20.540;2022-07-05T12:26:16;35.39;29.95
67586;SHT31;55785;47.946;20.540;2022-07-05T12:28:42;35.61;29.74
67586;SHT31;55785;47.946;20.540;2022-07-05T12:31:20;35.66;30.15
67586;SHT31;55785;47.946;20.540;2022-07-05T12:33:47;34.91;30.93
67586;SHT31;55785;47.946;20.540;2022-07-05T12:36:17;34.88;31.39
67586;SHT31;55785;47.946;20.540;2022-07-05T12:38:43;34.28;30.56
67586;SHT31;55785;47.946;20.540;2022-07-05T12:41:09;34.05;30.77
67586;SHT31;55785;47.946;20.540;2022-07-05T12:43:54;34.02;31.07
67586;SHT31;55785;47.946;20.540;2022-07-05T12:46:33;34.61;31.71
67586;SHT31;55785;47.946;20.540;2022-07-05T12:49:00;34.77;29.15
67586;SHT31;55785;47.946;20.540;2022-07-05T12:51:36;35.26;29.28
67586;SHT31;55785;47.946;20.540;2022-07-05T12:54:23;35.21;30.49
67586;SHT31;55785;47.946;20.540;2022-07-05T12:56:53;34.87;29.91
67586;SHT31;55785;47.946;20.540;2022-07-05T12:59:18;34.17;31.18
67586;SHT31;55785;47.946;20.540;2022-07-05T13:01:44;33.68;32.13
67586;SHT31;55785;47.946;20.540;2022-07-05T13:04:14;33.30;31.87
67586;SHT31;55785;47.946;20.540;2022-07-05T13:12:18;32.39;33.69
67586;SHT31;55785;47.946;20.540;2022-07-05T13:14:49;32.32;33.27
67586;SHT31;55785;47.946;20.540;2022-07-05T13:17:16;30.85;45.25
67586;SHT31;55785;47.946;20.540;2022-07-05T13:19:44;27.99;52.93
67586;SHT31;55785;47.946;20.540;2022-07-05T13:22:10;25.20;61.05
67586;SHT31;55785;47.946;20.540;2022-07-05T13:24:36;24.19;63.10
67586;SHT31;55785;47.946;20.540;2022-07-05T13:27:02;23.78;66.99
67586;SHT31;55785;47.946;20.540;2022-07-05T13:29:27;23.45;68.50
67586;SHT31;55785;47.946;20.540;2022-07-05T13:31:53;22.55;75.40
67586;SHT31;55785;47.946;20.540;2022-07-05T13:34:18;22.12;76.84
67586;SHT31;55785;47.946;20.540;2022-07-05T13:36:44;21.90;78.38
67586;SHT31;55785;47.946;20.540;2022-07-05T13:39:11;22.13;74.20
67586;SHT31;55785;47.946;20.540;2022-07-05T13:41:36;22.39;74.04
67586;SHT31;55785;47.946;20.540;2022-07-05T13:44:01;22.14;75.58
67586;SHT31;55785;47.946;20.540;2022-07-05T13:46:27;22.16;77.55
67586;SHT31;55785;47.946;20.540;2022-07-05T13:48:52;22.10;76.89
67586;SHT31;55785;47.946;20.540;2022-07-05T13:51:18;21.82;77.06
67586;SHT31;55785;47.946;20.540;2022-07-05T13:53:43;21.27;81.39
67586;SHT31;55785;47.946;20.540;2022-07-05T13:56:08;21.21;82.23
67586;SHT31;55785;47.946;20.540;2022-07-05T13:58:34;21.23;83.39
67586;SHT31;55785;47.946;20.540;2022-07-05T14:01:00;21.07;84.15
67586;SHT31;55785;47.946;20.540;2022-07-05T14:03:26;21.37;84.67
67586;SHT31;55785;47.946;20.540;2022-07-05T14:05:52;21.55;83.45
67586;SHT31;55785;47.946;20.540;2022-07-05T14:08:18;21.94;82.39
67586;SHT31;55785;47.946;20.540;2022-07-05T14:10:43;22.17;83.63
67586;SHT31;55785;47.946;20.540;2022-07-05T14:13:08;22.31;78.74
67586;SHT31;55785;47.946;20.540;2022-07-05T14:15:33;22.34;78.34
67586;SHT31;55785;47.946;20.540;2022-07-05T14:17:59;22.27;77.41
67586;SHT31;55785;47.946;20.540;2022-07-05T14:20:24;21.96;78.20
67586;SHT31;55785;47.946;20.540;2022-07-05T14:22:49;22.00;78.27
67586;SHT31;55785;47.946;20.540;2022-07-05T14:25:15;22.25;79.76
67586;SHT31;55785;47.946;20.540;2022-07-05T14:27:40;22.25;79.66
67586;SHT31;55785;47.946;20.540;2022-07-05T14:30:06;22.14;78.64
67586;SHT31;55785;47.946;20.540;2022-07-05T14:32:31;21.94;78.21
67586;SHT31;55785;47.946;20.540;2022-07-05T14:34:57;21.79;80.31
67586;SHT31;55785;47.946;20.540;2022-07-05T14:37:22;21.76;79.35
67586;SHT31;55785;47.946;20.540;2022-07-05T14:39:48;21.89;78.83
67586;SHT31;55785;47.946;20.540;2022-07-05T14:42:13;21.89;83.73
67586;SHT31;55785;47.946;20.540;2022-07-05T14:44:38;22.12;84.20
67586;SHT31;55785;47.946;20.540;2022-07-05T14:47:04;22.12;84.16
67586;SHT31;55785;47.946;20.540;2022-07-05T14:49:29;22.04;82.04
67586;SHT31;55785;47.946;20.540;2022-07-05T14:51:55;21.96;79.93
67586;SHT31;55785;47.946;20.540;2022-07-05T14:54:20;21.94;81.42
67586;SHT31;55785;47.946;20.540;2022-07-05T14:56:45;21.92;81.27
67586;SHT31;55785;47.946;20.540;2022-07-05T14:59:10;22.24;81.78
67586;SHT31;55785;47.946;20.540;2022-07-05T15:01:36;22.51;80.26
67586;SHT31;55785;47.946;20.540;2022-07-05T15:04:01;22.72;82.73
67586;SHT31;55785;47.946;20.540;2022-07-05T15:06:26;22.62;81.25
67586;SHT31;55785;47.946;20.540;2022-07-05T15:08:52;22.81;78.39
67586;SHT31;55785;47.946;20.540;2022-07-05T15:11:17;23.10;80.65
67586;SHT31;55785;47.946;20.540;2022-07-05T15:13:45;23.02;77.28
67586;SHT31;55785;47.946;20.540;2022-07-05T15:16:10;22.92;77.05
67586;SHT31;55785;47.946;20.540;2022-07-05T15:18:36;23.00;75.41
67586;SHT31;55785;47.946;20.540;2022-07-05T15:21:01;23.00;75.73
67586;SHT31;55785;47.946;20.540;2022-07-05T15:23:26;22.87;74.71
67586;SHT31;55785;47.946;20.540;2022-07-05T15:25:52;22.89;77.20
67586;SHT31;55785;47.946;20.540;2022-07-05T15:28:17;22.64;77.80
67586;SHT31;55785;47.946;20.540;2022-07-05T15:30:43;22.67;74.35
67586;SHT31;55785;47.946;20.540;2022-07-05T15:33:08;22.51;76.67
67586;SHT31;55785;47.946;20.540;2022-07-05T15:35:33;22.41;79.04
67586;SHT31;55785;47.946;20.540;2022-07-05T15:37:59;22.24;80.29
67586;SHT31;55785;47.946;20.540;2022-07-05T15:40:24;22.20;82.18
67586;SHT31;55785;47.946;20.540;2022-07-05T15:42:49;22.13;77.04
67586;SHT31;55785;47.946;20.540;2022-07-05T15:45:15;22.10;76.43
67586;SHT31;55785;47.946;20.540;2022-07-05T15:47:40;22.07;75.50